North Judson, Indiana
Current Conditions -  °F | °C
As of 3:15 PM on Thursday 23 Oct 2014 (Local Time) from KOXI Reporting Station
Clear Clear  
Wind Chill: 14°   Ceiling: Unl
Heat Index: 14°   Visibility: 10mi
Dew Point:   Wind: 7mph
Humidity: 50%   Direction: 170°S
Pressure: 30.13"   Gusts: NA
Location:  41.22°N, 86.78°W
Report Text: KOXI 232015Z AUTO 17006KT 10SM CLR 14/04 A3013 RMK AO1 T01420040
Loading
Personal Weather Stations






























Interactive Weather Map
Tropical Storm Tracking
New forecast layout! Learn more

10-Day Weather Forecast

Advertisements
Track Severe Weather on mobile